sensor_id;sensor_type;location;lat;lon;timestamp;P1;durP1;ratioP1;P2;durP2;ratioP2
67665;SDS011;54448;51.472;-2.574;2022-09-09T00:04:37;22.40;;;9.27;;
67665;SDS011;54448;51.472;-2.574;2022-09-09T00:14:58;25.75;;;10.85;;
67665;SDS011;54448;51.472;-2.574;2022-09-09T00:20:12;16.42;;;9.00;;
67665;SDS011;54448;51.472;-2.574;2022-09-09T00:22:53;25.15;;;9.88;;
67665;SDS011;54448;51.472;-2.574;2022-09-09T00:28:30;16.98;;;9.10;;
67665;SDS011;54448;51.472;-2.574;2022-09-09T00:30:59;20.48;;;8.13;;
67665;SDS011;54448;51.472;-2.574;2022-09-09T00:33:33;14.30;;;6.72;;
67665;SDS011;54448;51.472;-2.574;2022-09-09T00:35:59;14.70;;;6.75;;
67665;SDS011;54448;51.472;-2.574;2022-09-09T00:41:00;22.70;;;6.00;;
67665;SDS011;54448;51.472;-2.574;2022-09-09T00:43:32;13.30;;;6.40;;
67665;SDS011;54448;51.472;-2.574;2022-09-09T00:46:26;9.85;;;5.28;;
67665;SDS011;54448;51.472;-2.574;2022-09-09T00:57:13;13.93;;;4.00;;
67665;SDS011;54448;51.472;-2.574;2022-09-09T00:59:52;8.73;;;3.47;;
67665;SDS011;54448;51.472;-2.574;2022-09-09T01:02:32;7.78;;;3.47;;
67665;SDS011;54448;51.472;-2.574;2022-09-09T01:05:12;7.40;;;3.10;;
67665;SDS011;54448;51.472;-2.574;2022-09-09T01:07:46;14.82;;;4.10;;
67665;SDS011;54448;51.472;-2.574;2022-09-09T01:12:58;9.05;;;3.33;;
67665;SDS011;54448;51.472;-2.574;2022-09-09T01:15:26;9.13;;;3.70;;
67665;SDS011;54448;51.472;-2.574;2022-09-09T01:17:57;7.70;;;3.60;;
67665;SDS011;54448;51.472;-2.574;2022-09-09T01:20:31;9.80;;;3.85;;
67665;SDS011;54448;51.472;-2.574;2022-09-09T01:23:19;9.88;;;3.80;;
67665;SDS011;54448;51.472;-2.574;2022-09-09T01:26:26;9.85;;;3.83;;
67665;SDS011;54448;51.472;-2.574;2022-09-09T01:28:53;17.38;;;5.20;;
67665;SDS011;54448;51.472;-2.574;2022-09-09T01:31:23;12.68;;;4.40;;
67665;SDS011;54448;51.472;-2.574;2022-09-09T01:33:53;9.68;;;3.90;;
67665;SDS011;54448;51.472;-2.574;2022-09-09T01:36:26;10.98;;;3.75;;
67665;SDS011;54448;51.472;-2.574;2022-09-09T01:38:55;10.63;;;3.80;;
67665;SDS011;54448;51.472;-2.574;2022-09-09T01:41:20;9.60;;;3.67;;
67665;SDS011;54448;51.472;-2.574;2022-09-09T01:43:46;10.27;;;3.97;;
67665;SDS011;54448;51.472;-2.574;2022-09-09T01:46:12;6.15;;;3.85;;
67665;SDS011;54448;51.472;-2.574;2022-09-09T01:48:38;8.18;;;3.22;;
67665;SDS011;54448;51.472;-2.574;2022-09-09T01:51:04;16.80;;;3.92;;
67665;SDS011;54448;51.472;-2.574;2022-09-09T01:53:30;8.40;;;3.45;;
67665;SDS011;54448;51.472;-2.574;2022-09-09T02:04:54;6.75;;;3.78;;
67665;SDS011;54448;51.472;-2.574;2022-09-09T02:07:15;8.77;;;3.08;;
67665;SDS011;54448;51.472;-2.574;2022-09-09T02:09:48;10.27;;;3.17;;
67665;SDS011;54448;51.472;-2.574;2022-09-09T02:12:16;7.80;;;2.72;;
67665;SDS011;54448;51.472;-2.574;2022-09-09T02:14:47;10.88;;;3.17;;
67665;SDS011;54448;51.472;-2.574;2022-09-09T02:17:18;8.02;;;3.20;;
67665;SDS011;54448;51.472;-2.574;2022-09-09T02:19:48;10.90;;;2.85;;
67665;SDS011;54448;51.472;-2.574;2022-09-09T02:22:16;6.68;;;3.20;;
67665;SDS011;54448;51.472;-2.574;2022-09-09T02:24:43;10.68;;;3.30;;
67665;SDS011;54448;51.472;-2.574;2022-09-09T02:27:11;6.20;;;2.92;;
67665;SDS011;54448;51.472;-2.574;2022-09-09T02:29:41;8.52;;;3.17;;
67665;SDS011;54448;51.472;-2.574;2022-09-09T02:32:25;10.95;;;3.13;;
67665;SDS011;54448;51.472;-2.574;2022-09-09T02:34:56;7.25;;;2.55;;
67665;SDS011;54448;51.472;-2.574;2022-09-09T02:37:29;9.23;;;2.78;;
67665;SDS011;54448;51.472;-2.574;2022-09-09T02:39:58;13.50;;;2.83;;
67665;SDS011;54448;51.472;-2.574;2022-09-09T02:42:24;11.98;;;3.53;;
67665;SDS011;54448;51.472;-2.574;2022-09-09T02:44:49;12.77;;;2.30;;
67665;SDS011;54448;51.472;-2.574;2022-09-09T02:50:15;8.43;;;2.75;;
67665;SDS011;54448;51.472;-2.574;2022-09-09T02:55:37;7.28;;;2.08;;
67665;SDS011;54448;51.472;-2.574;2022-09-09T02:58:14;10.15;;;2.30;;
67665;SDS011;54448;51.472;-2.574;2022-09-09T03:00:49;7.55;;;1.80;;
67665;SDS011;54448;51.472;-2.574;2022-09-09T03:03:16;6.00;;;1.98;;
67665;SDS011;54448;51.472;-2.574;2022-09-09T03:05:42;4.93;;;1.90;;
67665;SDS011;54448;51.472;-2.574;2022-09-09T03:08:08;5.95;;;2.30;;
67665;SDS011;54448;51.472;-2.574;2022-09-09T03:10:34;6.22;;;1.80;;
67665;SDS011;54448;51.472;-2.574;2022-09-09T03:13:06;5.85;;;1.80;;
67665;SDS011;54448;51.472;-2.574;2022-09-09T03:15:32;4.88;;;2.20;;
67665;SDS011;54448;51.472;-2.574;2022-09-09T03:17:58;5.03;;;1.80;;
67665;SDS011;54448;51.472;-2.574;2022-09-09T03:20:27;6.53;;;2.10;;
67665;SDS011;54448;51.472;-2.574;2022-09-09T03:22:54;10.63;;;2.28;;
67665;SDS011;54448;51.472;-2.574;2022-09-09T03:25:20;6.47;;;1.98;;
67665;SDS011;54448;51.472;-2.574;2022-09-09T03:27:48;5.88;;;2.22;;
67665;SDS011;54448;51.472;-2.574;2022-09-09T03:30:14;6.38;;;2.08;;
67665;SDS011;54448;51.472;-2.574;2022-09-09T03:32:40;11.35;;;2.55;;
67665;SDS011;54448;51.472;-2.574;2022-09-09T03:35:06;7.07;;;2.30;;
67665;SDS011;54448;51.472;-2.574;2022-09-09T03:37:32;9.13;;;2.00;;
67665;SDS011;54448;51.472;-2.574;2022-09-09T03:39:57;7.47;;;1.83;;
67665;SDS011;54448;51.472;-2.574;2022-09-09T03:42:24;8.27;;;1.92;;
67665;SDS011;54448;51.472;-2.574;2022-09-09T03:44:49;4.28;;;2.08;;
67665;SDS011;54448;51.472;-2.574;2022-09-09T03:47:19;8.15;;;2.17;;
67665;SDS011;54448;51.472;-2.574;2022-09-09T03:49:46;4.38;;;2.08;;
67665;SDS011;54448;51.472;-2.574;2022-09-09T03:52:13;7.72;;;2.10;;
67665;SDS011;54448;51.472;-2.574;2022-09-09T03:54:39;7.72;;;2.42;;
67665;SDS011;54448;51.472;-2.574;2022-09-09T03:57:06;7.53;;;2.38;;
67665;SDS011;54448;51.472;-2.574;2022-09-09T03:59:31;9.18;;;2.42;;
67665;SDS011;54448;51.472;-2.574;2022-09-09T04:01:57;4.85;;;2.40;;
67665;SDS011;54448;51.472;-2.574;2022-09-09T04:04:24;7.43;;;2.50;;
67665;SDS011;54448;51.472;-2.574;2022-09-09T04:06:49;5.78;;;2.58;;
67665;SDS011;54448;51.472;-2.574;2022-09-09T04:09:15;6.65;;;2.55;;
67665;SDS011;54448;51.472;-2.574;2022-09-09T04:11:41;8.25;;;2.60;;
67665;SDS011;54448;51.472;-2.574;2022-09-09T04:14:06;11.60;;;2.75;;
67665;SDS011;54448;51.472;-2.574;2022-09-09T04:16:32;11.02;;;2.45;;
67665;SDS011;54448;51.472;-2.574;2022-09-09T04:18:58;7.32;;;2.53;;
67665;SDS011;54448;51.472;-2.574;2022-09-09T04:21:25;5.65;;;2.10;;
67665;SDS011;54448;51.472;-2.574;2022-09-09T04:23:51;7.93;;;2.30;;
67665;SDS011;54448;51.472;-2.574;2022-09-09T04:26:16;5.13;;;2.40;;
67665;SDS011;54448;51.472;-2.574;2022-09-09T04:28:42;10.38;;;2.15;;
67665;SDS011;54448;51.472;-2.574;2022-09-09T04:31:08;7.55;;;2.40;;
67665;SDS011;54448;51.472;-2.574;2022-09-09T04:33:36;12.85;;;3.28;;
67665;SDS011;54448;51.472;-2.574;2022-09-09T04:36:01;6.78;;;2.17;;
67665;SDS011;54448;51.472;-2.574;2022-09-09T04:38:27;6.47;;;1.70;;
67665;SDS011;54448;51.472;-2.574;2022-09-09T04:40:53;7.63;;;2.00;;
67665;SDS011;54448;51.472;-2.574;2022-09-09T04:43:19;8.65;;;1.90;;
67665;SDS011;54448;51.472;-2.574;2022-09-09T04:45:49;6.82;;;1.80;;
67665;SDS011;54448;51.472;-2.574;2022-09-09T04:48:19;7.43;;;2.35;;
67665;SDS011;54448;51.472;-2.574;2022-09-09T04:50:53;4.45;;;1.70;;
67665;SDS011;54448;51.472;-2.574;2022-09-09T04:53:20;8.30;;;1.90;;
67665;SDS011;54448;51.472;-2.574;2022-09-09T04:55:47;7.13;;;2.00;;
67665;SDS011;54448;51.472;-2.574;2022-09-09T04:58:12;3.33;;;1.63;;
67665;SDS011;54448;51.472;-2.574;2022-09-09T05:00:38;8.50;;;1.80;;
67665;SDS011;54448;51.472;-2.574;2022-09-09T05:03:06;5.30;;;1.60;;
67665;SDS011;54448;51.472;-2.574;2022-09-09T05:05:33;5.30;;;1.92;;
67665;SDS011;54448;51.472;-2.574;2022-09-09T05:08:03;8.55;;;1.60;;
67665;SDS011;54448;51.472;-2.574;2022-09-09T05:10:29;3.75;;;1.40;;
67665;SDS011;54448;51.472;-2.574;2022-09-09T05:12:55;9.27;;;1.50;;
67665;SDS011;54448;51.472;-2.574;2022-09-09T05:15:21;6.90;;;1.50;;
67665;SDS011;54448;51.472;-2.574;2022-09-09T05:17:47;8.68;;;1.50;;
67665;SDS011;54448;51.472;-2.574;2022-09-09T05:20:12;2.30;;;1.10;;
67665;SDS011;54448;51.472;-2.574;2022-09-09T05:22:38;7.88;;;1.40;;
67665;SDS011;54448;51.472;-2.574;2022-09-09T05:25:03;5.40;;;1.40;;
67665;SDS011;54448;51.472;-2.574;2022-09-09T05:27:29;5.65;;;1.60;;
67665;SDS011;54448;51.472;-2.574;2022-09-09T05:29:57;4.93;;;1.90;;
67665;SDS011;54448;51.472;-2.574;2022-09-09T05:32:23;8.70;;;1.38;;
67665;SDS011;54448;51.472;-2.574;2022-09-09T05:34:49;4.80;;;1.10;;
67665;SDS011;54448;51.472;-2.574;2022-09-09T05:37:15;4.30;;;1.13;;
67665;SDS011;54448;51.472;-2.574;2022-09-09T05:39:41;6.32;;;1.45;;
67665;SDS011;54448;51.472;-2.574;2022-09-09T05:42:07;5.93;;;1.77;;
67665;SDS011;54448;51.472;-2.574;2022-09-09T05:44:32;6.35;;;1.50;;
67665;SDS011;54448;51.472;-2.574;2022-09-09T05:46:58;6.68;;;1.20;;
67665;SDS011;54448;51.472;-2.574;2022-09-09T05:49:23;3.58;;;1.13;;
67665;SDS011;54448;51.472;-2.574;2022-09-09T05:51:49;11.45;;;1.70;;
67665;SDS011;54448;51.472;-2.574;2022-09-09T05:54:15;10.20;;;1.60;;
67665;SDS011;54448;51.472;-2.574;2022-09-09T05:56:42;7.50;;;1.75;;
67665;SDS011;54448;51.472;-2.574;2022-09-09T05:59:07;6.43;;;1.52;;
67665;SDS011;54448;51.472;-2.574;2022-09-09T06:01:34;4.80;;;1.33;;
67665;SDS011;54448;51.472;-2.574;2022-09-09T06:04:00;9.52;;;1.73;;
67665;SDS011;54448;51.472;-2.574;2022-09-09T06:06:27;11.75;;;1.30;;
67665;SDS011;54448;51.472;-2.574;2022-09-09T06:08:56;5.57;;;1.20;;
67665;SDS011;54448;51.472;-2.574;2022-09-09T06:11:30;6.82;;;1.58;;
67665;SDS011;54448;51.472;-2.574;2022-09-09T06:14:01;4.80;;;1.30;;
67665;SDS011;54448;51.472;-2.574;2022-09-09T06:16:27;7.63;;;1.48;;
67665;SDS011;54448;51.472;-2.574;2022-09-09T06:18:54;5.93;;;1.55;;
67665;SDS011;54448;51.472;-2.574;2022-09-09T06:23:50;9.68;;;1.98;;
67665;SDS011;54448;51.472;-2.574;2022-09-09T06:26:20;4.60;;;1.23;;
67665;SDS011;54448;51.472;-2.574;2022-09-09T06:28:47;6.43;;;1.30;;
67665;SDS011;54448;51.472;-2.574;2022-09-09T06:31:15;4.72;;;1.40;;
67665;SDS011;54448;51.472;-2.574;2022-09-09T06:33:42;9.25;;;2.00;;
67665;SDS011;54448;51.472;-2.574;2022-09-09T06:36:13;6.72;;;1.40;;
67665;SDS011;54448;51.472;-2.574;2022-09-09T06:38:40;6.80;;;1.52;;
67665;SDS011;54448;51.472;-2.574;2022-09-09T06:41:07;9.27;;;1.63;;
67665;SDS011;54448;51.472;-2.574;2022-09-09T06:43:33;5.03;;;1.50;;
67665;SDS011;54448;51.472;-2.574;2022-09-09T06:46:33;6.45;;;1.40;;
67665;SDS011;54448;51.472;-2.574;2022-09-09T06:48:56;5.65;;;1.30;;
67665;SDS011;54448;51.472;-2.574;2022-09-09T06:51:24;5.93;;;1.45;;
67665;SDS011;54448;51.472;-2.574;2022-09-09T06:53:58;12.20;;;1.90;;
67665;SDS011;54448;51.472;-2.574;2022-09-09T06:58:53;7.53;;;1.40;;
67665;SDS011;54448;51.472;-2.574;2022-09-09T07:01:20;6.43;;;1.50;;
67665;SDS011;54448;51.472;-2.574;2022-09-09T07:03:48;6.68;;;1.63;;
67665;SDS011;54448;51.472;-2.574;2022-09-09T07:06:22;5.13;;;1.25;;
67665;SDS011;54448;51.472;-2.574;2022-09-09T07:08:58;9.18;;;1.77;;
67665;SDS011;54448;51.472;-2.574;2022-09-09T07:11:29;11.63;;;1.65;;
67665;SDS011;54448;51.472;-2.574;2022-09-09T07:13:59;3.45;;;1.33;;
67665;SDS011;54448;51.472;-2.574;2022-09-09T07:16:25;12.75;;;1.85;;
67665;SDS011;54448;51.472;-2.574;2022-09-09T07:18:53;6.00;;;1.30;;
67665;SDS011;54448;51.472;-2.574;2022-09-09T07:21:26;5.85;;;1.25;;
67665;SDS011;54448;51.472;-2.574;2022-09-09T07:23:52;6.25;;;1.35;;
67665;SDS011;54448;51.472;-2.574;2022-09-09T07:26:19;5.60;;;1.23;;
67665;SDS011;54448;51.472;-2.574;2022-09-09T07:28:46;7.22;;;1.30;;
67665;SDS011;54448;51.472;-2.574;2022-09-09T07:31:18;2.88;;;1.20;;
67665;SDS011;54448;51.472;-2.574;2022-09-09T07:33:45;7.13;;;1.17;;
67665;SDS011;54448;51.472;-2.574;2022-09-09T07:36:16;9.90;;;1.35;;
67665;SDS011;54448;51.472;-2.574;2022-09-09T07:38:44;7.47;;;1.38;;
67665;SDS011;54448;51.472;-2.574;2022-09-09T07:41:12;4.70;;;1.02;;
67665;SDS011;54448;51.472;-2.574;2022-09-09T07:43:41;5.63;;;1.30;;
67665;SDS011;54448;51.472;-2.574;2022-09-09T07:46:08;8.20;;;1.67;;
67665;SDS011;54448;51.472;-2.574;2022-09-09T07:48:34;3.92;;;1.40;;
67665;SDS011;54448;51.472;-2.574;2022-09-09T07:51:11;3.92;;;1.27;;
67665;SDS011;54448;51.472;-2.574;2022-09-09T07:53:42;9.50;;;1.35;;
67665;SDS011;54448;51.472;-2.574;2022-09-09T07:56:09;8.88;;;1.20;;
67665;SDS011;54448;51.472;-2.574;2022-09-09T07:58:45;5.32;;;1.65;;
67665;SDS011;54448;51.472;-2.574;2022-09-09T08:01:13;5.65;;;1.30;;
67665;SDS011;54448;51.472;-2.574;2022-09-09T08:03:55;8.00;;;1.25;;
67665;SDS011;54448;51.472;-2.574;2022-09-09T08:06:27;3.03;;;1.00;;
67665;SDS011;54448;51.472;-2.574;2022-09-09T08:08:54;4.78;;;1.20;;
67665;SDS011;54448;51.472;-2.574;2022-09-09T08:11:20;3.15;;;0.90;;
67665;SDS011;54448;51.472;-2.574;2022-09-09T08:16:53;4.00;;;0.98;;
67665;SDS011;54448;51.472;-2.574;2022-09-09T08:19:19;5.63;;;1.08;;
67665;SDS011;54448;51.472;-2.574;2022-09-09T08:21:45;3.97;;;0.90;;
67665;SDS011;54448;51.472;-2.574;2022-09-09T08:24:10;5.90;;;1.00;;
67665;SDS011;54448;51.472;-2.574;2022-09-09T08:26:38;4.45;;;0.95;;
67665;SDS011;54448;51.472;-2.574;2022-09-09T08:29:05;2.03;;;0.90;;
67665;SDS011;54448;51.472;-2.574;2022-09-09T08:31:34;5.05;;;1.00;;
67665;SDS011;54448;51.472;-2.574;2022-09-09T08:34:03;11.30;;;1.42;;
67665;SDS011;54448;51.472;-2.574;2022-09-09T08:36:30;6.60;;;1.20;;
67665;SDS011;54448;51.472;-2.574;2022-09-09T08:39:01;4.88;;;1.00;;
67665;SDS011;54448;51.472;-2.574;2022-09-09T08:41:30;3.42;;;0.98;;
67665;SDS011;54448;51.472;-2.574;2022-09-09T08:52:15;9.40;;;1.05;;
67665;SDS011;54448;51.472;-2.574;2022-09-09T08:54:43;8.27;;;1.40;;
67665;SDS011;54448;51.472;-2.574;2022-09-09T08:57:11;4.10;;;1.00;;
67665;SDS011;54448;51.472;-2.574;2022-09-09T08:59:40;4.55;;;1.15;;
67665;SDS011;54448;51.472;-2.574;2022-09-09T09:02:21;4.53;;;0.90;;
67665;SDS011;54448;51.472;-2.574;2022-09-09T09:07:58;2.70;;;0.90;;
67665;SDS011;54448;51.472;-2.574;2022-09-09T09:13:30;3.33;;;1.13;;
67665;SDS011;54448;51.472;-2.574;2022-09-09T09:16:06;7.43;;;1.23;;
67665;SDS011;54448;51.472;-2.574;2022-09-09T09:18:35;5.00;;;1.15;;
67665;SDS011;54448;51.472;-2.574;2022-09-09T09:23:45;6.70;;;1.30;;
67665;SDS011;54448;51.472;-2.574;2022-09-09T09:26:19;5.72;;;1.00;;
67665;SDS011;54448;51.472;-2.574;2022-09-09T09:28:47;4.45;;;1.08;;
67665;SDS011;54448;51.472;-2.574;2022-09-09T09:31:12;4.57;;;1.23;;
67665;SDS011;54448;51.472;-2.574;2022-09-09T09:33:51;6.47;;;0.93;;
67665;SDS011;54448;51.472;-2.574;2022-09-09T09:36:24;3.65;;;0.93;;
67665;SDS011;54448;51.472;-2.574;2022-09-09T09:38:59;5.68;;;1.13;;
67665;SDS011;54448;51.472;-2.574;2022-09-09T09:41:30;4.40;;;1.00;;
67665;SDS011;54448;51.472;-2.574;2022-09-09T09:44:05;5.20;;;1.00;;
67665;SDS011;54448;51.472;-2.574;2022-09-09T09:46:45;3.50;;;1.17;;
67665;SDS011;54448;51.472;-2.574;2022-09-09T09:49:10;6.35;;;1.50;;
67665;SDS011;54448;51.472;-2.574;2022-09-09T09:51:37;3.10;;;0.98;;
67665;SDS011;54448;51.472;-2.574;2022-09-09T09:54:26;2.30;;;0.90;;
67665;SDS011;54448;51.472;-2.574;2022-09-09T09:56:52;7.28;;;1.23;;
67665;SDS011;54448;51.472;-2.574;2022-09-09T10:01:52;3.15;;;0.90;;
67665;SDS011;54448;51.472;-2.574;2022-09-09T10:04:19;5.32;;;1.30;;
67665;SDS011;54448;51.472;-2.574;2022-09-09T10:06:51;5.47;;;1.10;;
67665;SDS011;54448;51.472;-2.574;2022-09-09T10:09:50;6.43;;;1.13;;
67665;SDS011;54448;51.472;-2.574;2022-09-09T10:14:59;8.13;;;1.63;;
67665;SDS011;54448;51.472;-2.574;2022-09-09T10:20:30;1.98;;;1.20;;
67665;SDS011;54448;51.472;-2.574;2022-09-09T10:23:10;6.38;;;2.08;;
67665;SDS011;54448;51.472;-2.574;2022-09-09T10:36:31;3.47;;;1.13;;
67665;SDS011;54448;51.472;-2.574;2022-09-09T10:39:04;10.15;;;4.47;;
67665;SDS011;54448;51.472;-2.574;2022-09-09T10:41:38;11.00;;;3.92;;
67665;SDS011;54448;51.472;-2.574;2022-09-09T10:53:15;4.65;;;1.30;;
67665;SDS011;54448;51.472;-2.574;2022-09-09T10:55:51;5.70;;;1.25;;
67665;SDS011;54448;51.472;-2.574;2022-09-09T10:58:25;5.07;;;1.00;;
67665;SDS011;54448;51.472;-2.574;2022-09-09T11:00:56;3.88;;;1.48;;
67665;SDS011;54448;51.472;-2.574;2022-09-09T11:03:28;6.55;;;1.02;;
67665;SDS011;54448;51.472;-2.574;2022-09-09T11:08:37;4.47;;;1.75;;
67665;SDS011;54448;51.472;-2.574;2022-09-09T11:11:06;6.28;;;1.50;;
67665;SDS011;54448;51.472;-2.574;2022-09-09T11:13:42;5.13;;;1.30;;
67665;SDS011;54448;51.472;-2.574;2022-09-09T11:16:29;9.73;;;2.00;;
67665;SDS011;54448;51.472;-2.574;2022-09-09T11:19:04;5.07;;;1.45;;
67665;SDS011;54448;51.472;-2.574;2022-09-09T11:21:57;5.05;;;1.70;;
67665;SDS011;54448;51.472;-2.574;2022-09-09T11:24:26;5.07;;;1.77;;
67665;SDS011;54448;51.472;-2.574;2022-09-09T11:27:07;9.82;;;1.80;;
67665;SDS011;54448;51.472;-2.574;2022-09-09T11:29:41;8.25;;;1.85;;
67665;SDS011;54448;51.472;-2.574;2022-09-09T11:34:53;3.58;;;1.23;;
67665;SDS011;54448;51.472;-2.574;2022-09-09T11:37:35;6.97;;;1.60;;
67665;SDS011;54448;51.472;-2.574;2022-09-09T11:40:23;4.65;;;1.73;;
67665;SDS011;54448;51.472;-2.574;2022-09-09T11:43:00;4.35;;;1.52;;
67665;SDS011;54448;51.472;-2.574;2022-09-09T11:45:50;6.22;;;2.10;;
67665;SDS011;54448;51.472;-2.574;2022-09-09T11:51:40;8.77;;;1.50;;
67665;SDS011;54448;51.472;-2.574;2022-09-09T11:53:58;4.45;;;1.35;;
67665;SDS011;54448;51.472;-2.574;2022-09-09T11:56:27;5.05;;;1.30;;
67665;SDS011;54448;51.472;-2.574;2022-09-09T11:59:01;3.47;;;1.20;;
67665;SDS011;54448;51.472;-2.574;2022-09-09T12:01:43;5.70;;;1.50;;
67665;SDS011;54448;51.472;-2.574;2022-09-09T12:06:44;5.38;;;2.22;;
67665;SDS011;54448;51.472;-2.574;2022-09-09T12:12:05;4.65;;;1.55;;
67665;SDS011;54448;51.472;-2.574;2022-09-09T12:14:36;8.77;;;2.22;;
67665;SDS011;54448;51.472;-2.574;2022-09-09T12:17:23;5.57;;;2.20;;
67665;SDS011;54448;51.472;-2.574;2022-09-09T12:33:17;6.68;;;1.83;;
67665;SDS011;54448;51.472;-2.574;2022-09-09T12:35:44;8.43;;;1.40;;
67665;SDS011;54448;51.472;-2.574;2022-09-09T12:38:14;7.45;;;1.60;;
67665;SDS011;54448;51.472;-2.574;2022-09-09T12:40:53;5.25;;;1.67;;
67665;SDS011;54448;51.472;-2.574;2022-09-09T12:43:20;7.05;;;1.40;;
67665;SDS011;54448;51.472;-2.574;2022-09-09T12:45:48;6.68;;;1.50;;
67665;SDS011;54448;51.472;-2.574;2022-09-09T12:48:15;3.92;;;1.40;;
67665;SDS011;54448;51.472;-2.574;2022-09-09T12:50:48;2.85;;;1.33;;
67665;SDS011;54448;51.472;-2.574;2022-09-09T12:53:22;6.00;;;1.52;;
67665;SDS011;54448;51.472;-2.574;2022-09-09T12:55:52;3.88;;;1.40;;
67665;SDS011;54448;51.472;-2.574;2022-09-09T12:58:20;4.50;;;1.83;;
67665;SDS011;54448;51.472;-2.574;2022-09-09T13:00:50;10.30;;;1.92;;
67665;SDS011;54448;51.472;-2.574;2022-09-09T13:03:18;5.97;;;1.50;;
67665;SDS011;54448;51.472;-2.574;2022-09-09T13:05:46;6.60;;;1.80;;
67665;SDS011;54448;51.472;-2.574;2022-09-09T13:08:12;6.00;;;2.00;;
67665;SDS011;54448;51.472;-2.574;2022-09-09T13:13:04;8.68;;;2.47;;
67665;SDS011;54448;51.472;-2.574;2022-09-09T13:15:38;5.75;;;2.17;;
67665;SDS011;54448;51.472;-2.574;2022-09-09T13:18:06;6.88;;;2.60;;
67665;SDS011;54448;51.472;-2.574;2022-09-09T13:20:35;7.97;;;2.60;;
67665;SDS011;54448;51.472;-2.574;2022-09-09T13:23:02;8.65;;;2.72;;
67665;SDS011;54448;51.472;-2.574;2022-09-09T13:25:28;9.43;;;2.70;;
67665;SDS011;54448;51.472;-2.574;2022-09-09T13:27:58;11.18;;;2.60;;
67665;SDS011;54448;51.472;-2.574;2022-09-09T13:30:28;4.55;;;2.38;;
67665;SDS011;54448;51.472;-2.574;2022-09-09T13:33:04;7.03;;;2.90;;
67665;SDS011;54448;51.472;-2.574;2022-09-09T13:35:45;6.70;;;2.67;;
67665;SDS011;54448;51.472;-2.574;2022-09-09T13:38:19;8.05;;;2.70;;
67665;SDS011;54448;51.472;-2.574;2022-09-09T13:40:53;8.60;;;3.13;;
67665;SDS011;54448;51.472;-2.574;2022-09-09T13:43:24;9.32;;;2.90;;
67665;SDS011;54448;51.472;-2.574;2022-09-09T13:49:00;8.82;;;3.33;;
67665;SDS011;54448;51.472;-2.574;2022-09-09T13:51:44;6.90;;;2.53;;
67665;SDS011;54448;51.472;-2.574;2022-09-09T13:54:16;5.68;;;2.38;;
67665;SDS011;54448;51.472;-2.574;2022-09-09T13:56:42;4.63;;;1.95;;
67665;SDS011;54448;51.472;-2.574;2022-09-09T13:59:12;5.82;;;1.95;;
67665;SDS011;54448;51.472;-2.574;2022-09-09T14:01:43;7.13;;;1.95;;
67665;SDS011;54448;51.472;-2.574;2022-09-09T14:04:09;5.15;;;2.13;;
67665;SDS011;54448;51.472;-2.574;2022-09-09T14:06:35;6.57;;;2.03;;
67665;SDS011;54448;51.472;-2.574;2022-09-09T14:09:07;5.68;;;2.63;;
67665;SDS011;54448;51.472;-2.574;2022-09-09T14:11:36;8.90;;;2.35;;
67665;SDS011;54448;51.472;-2.574;2022-09-09T14:14:02;7.97;;;3.08;;
67665;SDS011;54448;51.472;-2.574;2022-09-09T14:16:27;6.32;;;2.50;;
67665;SDS011;54448;51.472;-2.574;2022-09-09T14:18:53;5.78;;;2.30;;
67665;SDS011;54448;51.472;-2.574;2022-09-09T14:21:21;12.15;;;2.75;;
67665;SDS011;54448;51.472;-2.574;2022-09-09T14:23:46;6.72;;;2.55;;
67665;SDS011;54448;51.472;-2.574;2022-09-09T14:26:12;8.70;;;2.65;;
67665;SDS011;54448;51.472;-2.574;2022-09-09T14:28:38;6.45;;;1.92;;
67665;SDS011;54448;51.472;-2.574;2022-09-09T14:31:05;5.35;;;1.85;;
67665;SDS011;54448;51.472;-2.574;2022-09-09T14:33:31;2.63;;;1.60;;
67665;SDS011;54448;51.472;-2.574;2022-09-09T14:35:57;7.07;;;2.10;;
67665;SDS011;54448;51.472;-2.574;2022-09-09T14:38:24;7.15;;;2.60;;
67665;SDS011;54448;51.472;-2.574;2022-09-09T14:40:49;4.07;;;1.80;;
67665;SDS011;54448;51.472;-2.574;2022-09-09T14:43:15;7.60;;;2.78;;
67665;SDS011;54448;51.472;-2.574;2022-09-09T14:45:42;6.30;;;2.67;;
67665;SDS011;54448;51.472;-2.574;2022-09-09T14:48:08;4.47;;;2.30;;
67665;SDS011;54448;51.472;-2.574;2022-09-09T14:50:34;4.70;;;2.20;;
67665;SDS011;54448;51.472;-2.574;2022-09-09T14:53:01;5.95;;;1.95;;
67665;SDS011;54448;51.472;-2.574;2022-09-09T14:55:27;7.75;;;2.38;;
67665;SDS011;54448;51.472;-2.574;2022-09-09T14:57:54;5.95;;;2.65;;
67665;SDS011;54448;51.472;-2.574;2022-09-09T15:00:19;6.10;;;2.22;;
67665;SDS011;54448;51.472;-2.574;2022-09-09T15:02:45;4.30;;;2.20;;
67665;SDS011;54448;51.472;-2.574;2022-09-09T15:05:10;10.07;;;1.77;;
67665;SDS011;54448;51.472;-2.574;2022-09-09T15:07:36;3.40;;;1.75;;
67665;SDS011;54448;51.472;-2.574;2022-09-09T15:10:02;4.03;;;1.52;;
67665;SDS011;54448;51.472;-2.574;2022-09-09T15:12:28;2.83;;;1.30;;
67665;SDS011;54448;51.472;-2.574;2022-09-09T15:14:53;11.20;;;1.63;;
67665;SDS011;54448;51.472;-2.574;2022-09-09T15:17:20;7.57;;;1.35;;
67665;SDS011;54448;51.472;-2.574;2022-09-09T15:19:45;5.15;;;1.40;;
67665;SDS011;54448;51.472;-2.574;2022-09-09T15:22:11;3.47;;;1.25;;
67665;SDS011;54448;51.472;-2.574;2022-09-09T15:24:36;3.60;;;1.30;;
67665;SDS011;54448;51.472;-2.574;2022-09-09T15:27:02;4.13;;;1.45;;
67665;SDS011;54448;51.472;-2.574;2022-09-09T15:29:27;5.50;;;1.50;;
67665;SDS011;54448;51.472;-2.574;2022-09-09T15:31:54;5.80;;;1.50;;
67665;SDS011;54448;51.472;-2.574;2022-09-09T15:34:20;7.60;;;1.40;;
67665;SDS011;54448;51.472;-2.574;2022-09-09T15:36:46;5.60;;;1.50;;
67665;SDS011;54448;51.472;-2.574;2022-09-09T15:39:12;5.47;;;1.75;;
67665;SDS011;54448;51.472;-2.574;2022-09-09T15:41:41;5.65;;;2.25;;
67665;SDS011;54448;51.472;-2.574;2022-09-09T15:44:07;9.75;;;2.10;;
67665;SDS011;54448;51.472;-2.574;2022-09-09T15:46:35;7.13;;;2.10;;
67665;SDS011;54448;51.472;-2.574;2022-09-09T15:49:07;20.65;;;3.08;;
67665;SDS011;54448;51.472;-2.574;2022-09-09T15:51:37;7.68;;;1.73;;
67665;SDS011;54448;51.472;-2.574;2022-09-09T15:54:04;4.30;;;1.40;;
67665;SDS011;54448;51.472;-2.574;2022-09-09T15:56:30;10.38;;;2.22;;
67665;SDS011;54448;51.472;-2.574;2022-09-09T15:58:56;8.48;;;1.90;;
67665;SDS011;54448;51.472;-2.574;2022-09-09T16:01:22;6.38;;;1.85;;
67665;SDS011;54448;51.472;-2.574;2022-09-09T16:03:48;6.18;;;1.83;;
67665;SDS011;54448;51.472;-2.574;2022-09-09T16:06:17;7.38;;;2.17;;
67665;SDS011;54448;51.472;-2.574;2022-09-09T16:08:44;7.25;;;1.55;;
67665;SDS011;54448;51.472;-2.574;2022-09-09T16:13:41;4.10;;;1.42;;
67665;SDS011;54448;51.472;-2.574;2022-09-09T16:16:09;11.05;;;5.72;;
67665;SDS011;54448;51.472;-2.574;2022-09-09T16:18:37;5.28;;;1.67;;
67665;SDS011;54448;51.472;-2.574;2022-09-09T16:21:15;2.80;;;1.20;;
67665;SDS011;54448;51.472;-2.574;2022-09-09T16:23:45;4.25;;;1.65;;
67665;SDS011;54448;51.472;-2.574;2022-09-09T16:26:11;5.28;;;1.20;;
67665;SDS011;54448;51.472;-2.574;2022-09-09T16:28:38;4.95;;;1.40;;
67665;SDS011;54448;51.472;-2.574;2022-09-09T16:31:05;3.00;;;1.40;;
67665;SDS011;54448;51.472;-2.574;2022-09-09T16:33:35;7.55;;;1.63;;
67665;SDS011;54448;51.472;-2.574;2022-09-09T16:36:05;4.60;;;1.60;;
67665;SDS011;54448;51.472;-2.574;2022-09-09T16:38:32;6.85;;;1.30;;
67665;SDS011;54448;51.472;-2.574;2022-09-09T16:41:01;4.25;;;1.38;;
67665;SDS011;54448;51.472;-2.574;2022-09-09T16:43:27;5.47;;;1.50;;
67665;SDS011;54448;51.472;-2.574;2022-09-09T16:45:53;8.40;;;1.30;;
67665;SDS011;54448;51.472;-2.574;2022-09-09T16:48:18;3.85;;;1.30;;
67665;SDS011;54448;51.472;-2.574;2022-09-09T16:50:44;6.85;;;1.60;;
67665;SDS011;54448;51.472;-2.574;2022-09-09T16:53:11;6.85;;;1.40;;
67665;SDS011;54448;51.472;-2.574;2022-09-09T16:55:38;6.28;;;1.88;;
67665;SDS011;54448;51.472;-2.574;2022-09-09T16:58:05;6.28;;;2.00;;
67665;SDS011;54448;51.472;-2.574;2022-09-09T17:00:30;7.13;;;1.85;;